createdAt,value
2023-02-11T00:04:50.062Z,86.96
2023-02-11T00:09:54.083Z,86.77
2023-02-11T00:15:00.627Z,86.36
2023-02-11T00:20:08.308Z,86.56
2023-02-11T00:25:14.001Z,86.13
2023-02-11T00:30:24.769Z,86.01
2023-02-11T00:35:30.554Z,86.17
2023-02-11T00:40:35.225Z,86.32
2023-02-11T00:45:42.356Z,86.28
2023-02-11T00:50:48.508Z,85.97
2023-02-11T00:55:52.937Z,86.12
2023-02-11T01:00:57.852Z,86.25
2023-02-11T01:06:03.792Z,86.02
2023-02-11T01:11:15.084Z,86.11
2023-02-11T01:16:23.987Z,86.26
2023-02-11T01:22:14.256Z,86.03
2023-02-11T01:27:22.110Z,86.36
2023-02-11T01:32:57.704Z,86.51
2023-02-11T01:38:24.797Z,86.33
2023-02-11T01:43:34.816Z,86.34
2023-02-11T01:48:45.793Z,86.43
2023-02-11T01:54:10.616Z,86.67
2023-02-11T01:59:24.077Z,86.86
2023-02-11T02:04:36.983Z,86.93
2023-02-11T02:09:50.059Z,87.42
2023-02-11T02:15:14.484Z,87.38
2023-02-11T02:21:08.523Z,87.26
2023-02-11T02:26:47.868Z,87.63
2023-02-11T02:32:50.872Z,87.14
2023-02-11T02:38:36.876Z,87.10
2023-02-11T02:43:52.418Z,86.74
2023-02-11T02:49:03.974Z,86.74
2023-02-11T02:54:59.682Z,86.86
2023-02-11T03:01:18.568Z,86.53
2023-02-11T03:07:35.234Z,86.26
2023-02-11T03:13:04.892Z,85.82
2023-02-11T03:18:12.371Z,85.55
2023-02-11T03:23:32.023Z,85.55
2023-02-11T03:28:50.376Z,85.46
2023-02-11T03:34:33.112Z,85.34
2023-02-11T03:40:02.747Z,85.33
2023-02-11T03:45:21.530Z,85.28
2023-02-11T03:50:28.679Z,85.50
2023-02-11T03:55:40.914Z,85.14
2023-02-11T04:00:45.776Z,84.93
2023-02-11T04:05:59.693Z,85.02
2023-02-11T04:11:47.864Z,85.01
2023-02-11T04:16:54.253Z,84.89
2023-02-11T04:22:06.344Z,84.87
2023-02-11T04:27:34.147Z,84.65
2023-02-11T04:32:51.379Z,84.73
2023-02-11T04:37:59.140Z,85.20
2023-02-11T04:43:05.214Z,85.06
2023-02-11T04:48:19.292Z,84.93
2023-02-11T04:53:26.632Z,84.82
2023-02-11T04:58:33.161Z,84.76
2023-02-11T05:03:55.294Z,84.94
2023-02-11T05:09:20.248Z,84.99
2023-02-11T05:14:28.126Z,84.85
2023-02-11T05:19:46.904Z,84.89
2023-02-11T05:24:51.432Z,84.71
2023-02-11T05:29:59.655Z,84.68
2023-02-11T05:35:39.636Z,84.75
2023-02-11T05:40:44.816Z,84.22
2023-02-11T05:45:50.642Z,84.31
2023-02-11T05:50:58.269Z,84.11
2023-02-11T05:56:33.087Z,84.09
2023-02-11T06:03:01.467Z,83.73
2023-02-11T06:08:43.981Z,83.97
2023-02-11T06:14:17.741Z,84.10
2023-02-11T06:19:24.598Z,84.39
2023-02-11T06:24:51.306Z,84.22
2023-02-11T06:30:01.701Z,84.39
2023-02-11T06:35:12.137Z,84.34
2023-02-11T06:40:17.274Z,84.49
2023-02-11T06:45:25.464Z,84.37
2023-02-11T06:51:22.304Z,84.21
2023-02-11T06:57:49.290Z,84.24
2023-02-11T07:03:39.810Z,84.37
2023-02-11T07:09:16.807Z,84.25
2023-02-11T07:14:41.825Z,84.57
2023-02-11T07:20:08.028Z,84.46
2023-02-11T07:25:45.834Z,84.55
2023-02-11T07:30:50.752Z,84.46
2023-02-11T07:36:10.948Z,84.49
2023-02-11T07:41:37.650Z,84.47
2023-02-11T07:47:27.315Z,84.54
2023-02-11T07:53:41.454Z,84.65
2023-02-11T08:00:03.919Z,84.84
2023-02-11T08:06:33.221Z,85.10
2023-02-11T08:12:58.328Z,85.28
2023-02-11T08:19:01.914Z,86.24
2023-02-11T08:24:09.410Z,86.76
2023-02-11T08:29:27.145Z,87.39
2023-02-11T08:34:31.438Z,88.00
2023-02-11T08:39:40.521Z,88.71
2023-02-11T08:44:56.269Z,88.58
2023-02-11T08:51:05.012Z,88.70
2023-02-11T08:56:52.717Z,89.92
2023-02-11T09:02:05.232Z,90.19
2023-02-11T09:07:46.477Z,89.82
2023-02-11T09:13:33.690Z,89.82
2023-02-11T09:19:10.771Z,89.97
2023-02-11T09:24:43.891Z,90.13
2023-02-11T09:30:30.547Z,89.98
2023-02-11T09:36:27.156Z,89.98
2023-02-11T09:42:34.225Z,89.83
2023-02-11T09:48:00.152Z,89.98
2023-02-11T09:53:49.194Z,90.02
2023-02-11T09:59:21.018Z,90.09
2023-02-11T10:05:34.625Z,90.15
2023-02-11T10:11:59.703Z,90.59
2023-02-11T10:18:18.807Z,91.18
2023-02-11T10:23:44.855Z,90.86
2023-02-11T10:28:56.681Z,91.00
2023-02-11T10:34:29.683Z,91.42
2023-02-11T10:40:20.984Z,91.22
2023-02-11T10:48:18.963Z,91.12
2023-02-11T11:00:19.499Z,91.45
2023-02-11T11:06:17.485Z,91.59
2023-02-11T11:11:52.360Z,92.19
2023-02-11T11:16:57.647Z,92.51
2023-02-11T11:22:59.484Z,92.66
2023-02-11T11:28:29.966Z,92.81
2023-02-11T11:33:38.624Z,92.26
2023-02-11T11:39:16.809Z,92.21
2023-02-11T11:45:18.798Z,91.61
2023-02-11T11:51:41.018Z,91.37
2023-02-11T11:57:36.068Z,91.31
2023-02-11T12:04:08.237Z,91.79
2023-02-11T12:10:22.978Z,91.94
2023-02-11T12:16:27.348Z,92.04
2023-02-11T12:22:40.856Z,91.87
2023-02-11T12:27:54.645Z,92.01
2023-02-11T12:34:04.656Z,92.11
2023-02-11T12:39:54.990Z,91.66
2023-02-11T12:47:33.521Z,91.89
2023-02-11T12:53:31.381Z,92.02
2023-02-11T12:58:45.415Z,92.16
2023-02-11T13:04:19.221Z,92.42
2023-02-11T13:15:55.717Z,92.40
2023-02-11T13:28:19.950Z,92.70
2023-02-11T13:34:21.664Z,92.44
2023-02-11T13:46:37.111Z,92.78
2023-02-11T13:52:45.043Z,92.72
2023-02-11T13:59:15.357Z,92.97
2023-02-11T14:05:45.098Z,92.87
2023-02-11T14:12:28.231Z,92.98
2023-02-11T14:19:02.171Z,93.54
2023-02-11T14:25:31.342Z,94.58
2023-02-11T14:32:15.295Z,95.48
2023-02-11T14:39:00.273Z,95.15
2023-02-11T14:45:16.744Z,95.93
2023-02-11T14:51:46.527Z,98.26
2023-02-11T14:58:17.322Z,98.94
2023-02-11T15:04:46.715Z,99.97
2023-02-11T15:11:06.345Z,100.00
2023-02-11T15:17:35.217Z,100.00
2023-02-11T15:24:02.675Z,100.00
2023-02-11T15:30:32.373Z,100.00
2023-02-11T15:36:58.651Z,100.00
2023-02-11T15:43:27.544Z,100.00
2023-02-11T15:49:55.535Z,100.00
2023-02-11T15:56:07.879Z,100.00
2023-02-11T16:02:38.487Z,100.00
2023-02-11T16:09:04.506Z,100.00
2023-02-11T16:15:45.125Z,100.00
2023-02-11T16:22:15.261Z,100.00
2023-02-11T16:28:44.081Z,100.00
2023-02-11T16:35:21.694Z,100.00
2023-02-11T16:41:31.553Z,100.00
2023-02-11T16:48:01.747Z,100.00
2023-02-11T16:54:27.484Z,100.00
2023-02-11T17:00:57.322Z,100.00
2023-02-11T17:07:18.130Z,100.00
2023-02-11T17:13:41.111Z,100.00
2023-02-11T17:20:07.435Z,100.00
2023-02-11T17:26:37.362Z,100.00
2023-02-11T17:33:04.913Z,100.00
2023-02-11T17:39:27.318Z,100.00
2023-02-11T17:52:38.344Z,100.00
2023-02-11T17:59:05.566Z,100.00
2023-02-11T18:05:33.273Z,100.00
2023-02-11T18:12:03.421Z,100.00
2023-02-11T18:18:13.670Z,100.00
2023-02-11T18:30:48.477Z,100.00
2023-02-11T18:37:19.980Z,100.00
2023-02-11T18:43:39.979Z,100.00
2023-02-11T18:49:37.804Z,100.00
2023-02-11T18:56:12.167Z,100.00
2023-02-11T19:02:43.066Z,100.00
2023-02-11T19:09:16.120Z,100.00
2023-02-11T19:15:46.687Z,100.00
2023-02-11T19:22:13.857Z,100.00
2023-02-11T19:28:44.718Z,100.00
2023-02-11T19:34:21.817Z,100.00
2023-02-11T19:40:50.680Z,100.00
2023-02-11T19:47:21.849Z,100.00
2023-02-11T19:53:54.519Z,100.00
2023-02-11T20:00:17.118Z,100.00
2023-02-11T20:06:49.088Z,100.00
2023-02-11T20:20:13.404Z,100.00
2023-02-11T20:26:17.550Z,100.00
2023-02-11T20:32:45.812Z,100.00
2023-02-11T20:39:14.925Z,100.00
2023-02-11T20:45:44.814Z,100.00
2023-02-11T20:52:12.619Z,100.00
2023-02-11T20:58:51.438Z,100.00
2023-02-11T21:05:23.564Z,100.00
2023-02-11T21:11:52.263Z,100.00
2023-02-11T21:18:19.492Z,100.00
2023-02-11T21:24:39.911Z,100.00
2023-02-11T21:31:08.374Z,100.00
2023-02-11T21:37:39.625Z,100.00
2023-02-11T21:44:06.114Z,100.00
2023-02-11T21:50:39.004Z,100.00
2023-02-11T21:57:04.260Z,100.00
2023-02-11T22:03:28.662Z,100.00
2023-02-11T22:10:29.441Z,100.00
2023-02-11T22:16:58.703Z,100.00
2023-02-11T22:23:17.547Z,100.00
2023-02-11T22:29:44.490Z,100.00
2023-02-11T22:35:57.473Z,100.00
2023-02-11T22:42:24.052Z,100.00
2023-02-11T22:48:48.164Z,100.00
2023-02-11T22:55:13.332Z,100.00
2023-02-11T23:01:13.953Z,100.00
2023-02-11T23:07:31.840Z,100.00
2023-02-11T23:13:40.274Z,100.00
2023-02-11T23:20:04.997Z,100.00
2023-02-11T23:26:15.076Z,100.00
2023-02-11T23:32:40.375Z,100.00
2023-02-11T23:39:08.901Z,100.00
2023-02-11T23:45:28.568Z,100.00
2023-02-11T23:51:54.751Z,100.00
2023-02-11T23:58:00.449Z,100.00
